• Join FlightAware (Why Join?)
  • Login
  • US Flag 
05:49PM EDT


 

Airport Tracker/Info


-or-


 

Live Flight TrackerFlight Track Log ✈ N277MB ✈ 06-May-2013 ✈ MDLR / LRM - TJIG / SIG

Flight Track Log - Related Links

Times and Time Zones

All times are in EDT time to prevent confusion due to time zone crossing. See the N277MB flight status page for this flight to view local times or setup timezone preferences in your user account.

Time Position Orientation Groundspeed Altitude Reporting Facility
EDT Latitude Longitude Course Direction KTS MPH feet Rate Location/Type
12:01PM 18.4261 -68.8710 122° Southeast  Level FlightAware Approximate
12:02PM 18.4016 -68.8302 122° Southeast  Level FlightAware Approximate
12:03PM 18.4029 -68.7819 105° East  Level Estimated
12:04PM 18.3829 -68.7384 116° Southeast  Level FlightAware Approximate
12:05PM 18.3630 -68.6949 116° Southeast  Level FlightAware Approximate
12:06PM 18.3650 -68.6467 103° East  Level Estimated
12:07PM 18.3532 -68.6000 105° East  Level FlightAware Approximate
12:07PM 18.2500 -67.9000 105° East 180 207 7,000  Level San Juan Center
12:08PM 18.3414 -68.5534 105° East  Level FlightAware Approximate
12:08PM 18.2667 -67.8500 71° East 170 196 7,000  Level San Juan Center
12:09PM 18.3295 -68.5067 105° East  Level FlightAware Approximate
12:09PM 18.2667 -67.8000 90° East 180 207 7,000  Level San Juan Center
12:10PM 18.3177 -68.4601 105° East  Level FlightAware Approximate
12:10PM 18.2833 -67.7500 71° East 180 207 7,000  Level San Juan Center
12:11PM 18.3058 -68.4134 105° East  Level FlightAware Approximate
12:11PM 18.2833 -67.6833 90° East 180 207 7,000  Level San Juan Center
12:12PM 18.2939 -68.3668 105° East  Level FlightAware Approximate
12:13PM 18.2820 -68.3201 105° East  Level FlightAware Approximate
12:13PM 18.3000 -67.5833 80° East 180 207 7,000  Level San Juan Center
12:15PM 18.3000 -67.4833 90° East 180 207 7,000  Level San Juan Center
12:16PM 18.3167 -67.4333 71° East 180 207 7,000  Level San Juan Center
12:17PM 18.3167 -67.3667 90° East 190 219 7,000  Level San Juan Center
12:18PM 18.3333 -67.3167 71° East 180 207 7,000  Level San Juan Center
12:19PM 18.3333 -67.2667 90° East 180 207 7,000  Level San Juan Center
12:21PM 18.3468 -67.1504 83° East  Level FlightAware Approximate
12:23PM 18.3500 -67.0500 83° East 180 207 7,000  Level San Juan Center
12:24PM 18.3667 -67.0000 71° East 180 207 7,000  Level San Juan Center
12:26PM 18.3833 -66.9000 80° East 180 207 7,000  Level San Juan Center
12:27PM 18.3833 -66.8500 90° East 190 219 7,000  Level San Juan Center
12:28PM 18.3974 -66.7063 83° East  Level FlightAware Approximate
12:28PM 18.4000 -66.8000 71° East 180 207 7,000  Level San Juan Center
12:29PM 18.4000 -66.7333 90° East 200 230 6,400 -600 Descending San Juan Center
12:30PM 18.4167 -66.6833 71° East 200 230 5,900 -540 Descending San Juan Center
12:32PM 18.4333 -66.5667 81° East 200 230 4,900 -480 Descending San Juan Center
12:33PM 18.4333 -66.5000 90° East 190 219 4,500 -420 Descending San Juan Center
12:34PM 18.4333 -66.4500 90° East 190 219 4,100 -360 Descending San Juan Center
12:36PM 18.4500 -66.3500 80° East 180 207 3,500 -300 Descending San Juan Center
12:38PM 18.4500 -66.2367 90° East  Level FlightAware Approximate
12:45PM 18.4568 -66.0981 90° East  Level Estimated
12:46PM 18.4568 -66.0981 90° East  Level Estimated
12:47PM 18.4568 -66.0981 90° East  Level Estimated
12:48PM 18.4568 -66.0981 90° East  Level Estimated
12:49PM 18.4568 -66.0981 90° East  Level Estimated
12:50PM 18.4568 -66.0981 90° East  Level Estimated
12:51PM 18.4568 -66.0981 90° East  Level Estimated
12:52PM 18.4568 -66.0981 90° East  Level Estimated
12:53PM 18.4568 -66.0981 90° East  Level Estimated
12:54PM 18.4568 -66.0981 90° East  Level Estimated
12:55PM 18.4568 -66.0981 90° East  Level Estimated
12:56PM 18.4568 -66.0981 90° East  Level Estimated
12:57PM 18.4568 -66.0981 90° East  Level Estimated
12:58PM 18.4568 -66.0981 90° East  Level Estimated
12:59PM 18.4568 -66.0981 90° East  Level Estimated
01:00PM 18.4568 -66.0981 90° East  Level Estimated